createdAt,value
2023-10-29T00:00:31.312Z,10.50
2023-10-29T00:01:03.205Z,10.50
2023-10-29T00:01:34.132Z,10.50
2023-10-29T00:02:06.791Z,10.50
2023-10-29T00:02:37.857Z,10.50
2023-10-29T00:03:09.850Z,10.50
2023-10-29T00:03:26.831Z,10.50
2023-10-29T00:03:58.656Z,9.75
2023-10-29T00:04:29.777Z,10.50
2023-10-29T00:04:47.080Z,10.50
2023-10-29T00:05:19.719Z,10.50
2023-10-29T00:05:39.700Z,10.50
2023-10-29T00:06:06.512Z,10.02
2023-10-29T00:06:37.637Z,10.50
2023-10-29T00:07:09.740Z,10.50
2023-10-29T00:07:26.527Z,10.50
2023-10-29T00:07:58.096Z,10.50
2023-10-29T00:08:29.654Z,10.50
2023-10-29T00:09:02.083Z,9.94
2023-10-29T00:09:34.080Z,8.74
2023-10-29T00:10:09.533Z,8.69
2023-10-29T00:10:37.615Z,10.02
2023-10-29T00:11:09.649Z,9.10
2023-10-29T00:11:31.914Z,9.46
2023-10-29T00:11:57.711Z,9.10
2023-10-29T00:12:30.458Z,9.34
2023-10-29T00:13:02.068Z,9.88
2023-10-29T00:13:34.499Z,9.29
2023-10-29T00:14:06.514Z,9.75
2023-10-29T00:14:38.104Z,9.59
2023-10-29T00:15:11.426Z,9.48
2023-10-29T00:15:26.588Z,9.59
2023-10-29T00:15:58.706Z,9.88
2023-10-29T00:16:29.765Z,9.75
2023-10-29T00:17:02.262Z,9.95
2023-10-29T00:17:34.114Z,9.34
2023-10-29T00:18:06.700Z,9.48
2023-10-29T00:18:37.654Z,9.48
2023-10-29T00:19:09.665Z,9.61
2023-10-29T00:19:26.701Z,9.25
2023-10-29T00:19:58.335Z,9.47
2023-10-29T00:20:30.634Z,9.72
2023-10-29T00:21:02.676Z,9.05
2023-10-29T00:21:34.146Z,9.42
2023-10-29T00:22:06.899Z,10.01
2023-10-29T00:22:37.621Z,9.61
2023-10-29T00:23:09.793Z,9.47
2023-10-29T00:23:26.556Z,9.66
2023-10-29T00:23:57.844Z,8.92
2023-10-29T00:24:29.584Z,8.72
2023-10-29T00:25:04.184Z,9.03
2023-10-29T00:25:34.358Z,8.69
2023-10-29T00:26:06.495Z,8.89
2023-10-29T00:26:37.921Z,9.26
2023-10-29T00:27:09.887Z,9.03
2023-10-29T00:27:27.214Z,8.98
2023-10-29T00:27:57.783Z,8.78
2023-10-29T00:28:29.795Z,8.89
2023-10-29T00:29:03.096Z,9.16
2023-10-29T00:29:34.604Z,8.95
2023-10-29T00:30:08.912Z,9.16
2023-10-29T00:30:38.260Z,8.38
2023-10-29T00:31:09.795Z,8.43
2023-10-29T00:31:26.678Z,8.91
2023-10-29T00:31:58.016Z,8.61
2023-10-29T00:32:29.709Z,8.68
2023-10-29T00:33:02.179Z,8.86
2023-10-29T00:33:34.185Z,9.16
2023-10-29T00:34:06.957Z,11.00
2023-10-29T00:34:37.690Z,11.00
2023-10-29T00:35:11.567Z,11.00
2023-10-29T00:35:26.595Z,11.00
2023-10-29T00:35:59.256Z,11.00
2023-10-29T00:36:30.326Z,11.00
2023-10-29T00:37:02.596Z,11.00
2023-10-29T00:37:34.684Z,11.11
2023-10-29T00:38:07.427Z,11.11
2023-10-29T00:38:37.833Z,11.11
2023-10-29T00:39:10.058Z,11.11
2023-10-29T00:39:26.569Z,11.11
2023-10-29T00:39:57.905Z,11.11
2023-10-29T00:40:30.340Z,11.11
2023-10-29T00:41:02.083Z,11.11
2023-10-29T00:41:33.956Z,11.11
2023-10-29T00:42:06.581Z,11.11
2023-10-29T00:42:38.131Z,11.11
2023-10-29T00:43:10.193Z,11.11
2023-10-29T00:43:26.877Z,11.11
2023-10-29T00:43:57.671Z,11.11
2023-10-29T00:44:30.153Z,11.11
2023-10-29T00:44:46.793Z,11.11
2023-10-29T00:45:20.398Z,11.11
2023-10-29T00:45:39.704Z,11.11
2023-10-29T00:46:07.119Z,11.11
2023-10-29T00:46:38.107Z,11.11
2023-10-29T00:47:10.303Z,11.11
2023-10-29T00:47:27.371Z,11.11
2023-10-29T00:47:57.787Z,11.11
2023-10-29T00:48:30.129Z,11.11
2023-10-29T00:49:02.084Z,11.11
2023-10-29T00:49:34.115Z,11.11
2023-10-29T00:50:08.177Z,11.11
2023-10-29T00:50:38.035Z,11.11
2023-10-29T00:51:10.278Z,11.11
2023-10-29T00:51:26.492Z,11.11
2023-10-29T00:51:58.722Z,11.11
2023-10-29T00:52:29.632Z,11.11
2023-10-29T00:53:03.352Z,11.11
2023-10-29T00:53:34.849Z,11.22
2023-10-29T00:54:06.937Z,11.22
2023-10-29T00:54:37.757Z,11.22
2023-10-29T00:55:11.580Z,11.22
2023-10-29T00:55:26.525Z,11.22
2023-10-29T00:55:58.259Z,11.22
2023-10-29T00:56:29.767Z,11.22
2023-10-29T00:57:02.716Z,11.22
2023-10-29T00:57:33.877Z,11.22
2023-10-29T00:58:06.494Z,11.22
2023-10-29T00:58:37.678Z,11.22
2023-10-29T00:59:09.890Z,11.22
2023-10-29T00:59:27.165Z,11.22
2023-10-29T00:59:57.688Z,11.22
2023-10-29T01:00:31.754Z,11.22
2023-10-29T01:01:03.187Z,11.22
2023-10-29T01:01:34.221Z,11.22
2023-10-29T01:02:06.649Z,11.22
2023-10-29T01:02:37.934Z,11.22
2023-10-29T01:03:09.967Z,11.22
2023-10-29T01:03:27.053Z,11.22
2023-10-29T01:03:58.234Z,11.22
2023-10-29T01:04:29.915Z,11.22
2023-10-29T01:05:04.266Z,11.22
2023-10-29T01:05:34.310Z,11.22
2023-10-29T01:06:06.704Z,11.22
2023-10-29T01:06:37.695Z,11.22
2023-10-29T01:07:09.929Z,11.22
2023-10-29T01:07:26.553Z,11.22
2023-10-29T01:07:58.370Z,11.22
2023-10-29T01:08:29.830Z,11.22
2023-10-29T01:09:03.084Z,11.22
2023-10-29T01:09:33.930Z,11.22
2023-10-29T01:10:08.369Z,11.27
2023-10-29T01:10:38.877Z,11.27
2023-10-29T01:11:10.079Z,11.27
2023-10-29T01:11:26.671Z,11.27
2023-10-29T01:11:57.637Z,11.27
2023-10-29T01:12:29.798Z,11.27
2023-10-29T01:12:46.517Z,11.27
2023-10-29T01:13:17.923Z,11.27
2023-10-29T01:13:40.017Z,11.27
2023-10-29T01:14:06.486Z,11.27
2023-10-29T01:14:37.895Z,11.22
2023-10-29T01:15:11.407Z,11.22
2023-10-29T01:15:26.593Z,11.22
2023-10-29T01:15:58.526Z,11.22
2023-10-29T01:16:29.638Z,11.22
2023-10-29T01:17:03.316Z,11.22
2023-10-29T01:17:34.319Z,11.22
2023-10-29T01:18:06.494Z,11.22
2023-10-29T01:18:37.672Z,11.27
2023-10-29T01:19:10.051Z,11.27
2023-10-29T01:19:26.605Z,11.27
2023-10-29T01:19:57.999Z,11.27
2023-10-29T01:20:30.454Z,11.27
2023-10-29T01:21:02.646Z,11.27
2023-10-29T01:21:33.977Z,11.27
2023-10-29T01:22:06.603Z,11.27
2023-10-29T01:22:37.873Z,11.27
2023-10-29T01:23:10.288Z,11.27
2023-10-29T01:23:26.724Z,11.27
2023-10-29T01:23:58.422Z,11.38
2023-10-29T01:24:29.784Z,11.38
2023-10-29T01:25:04.549Z,11.38
2023-10-29T01:25:34.716Z,11.38
2023-10-29T01:26:06.418Z,11.38
2023-10-29T01:26:37.738Z,11.38
2023-10-29T01:27:09.739Z,11.38
2023-10-29T01:27:26.465Z,11.38
2023-10-29T01:27:59.184Z,11.38
2023-10-29T01:28:29.899Z,11.38
2023-10-29T01:29:01.933Z,11.38
2023-10-29T01:29:34.255Z,11.38
2023-10-29T01:30:08.616Z,11.38
2023-10-29T01:30:37.742Z,11.38
2023-10-29T01:31:10.196Z,11.27
2023-10-29T01:31:26.773Z,11.27
2023-10-29T01:31:57.883Z,11.27
2023-10-29T01:32:30.106Z,11.27
2023-10-29T01:33:02.319Z,11.27
2023-10-29T01:33:34.370Z,11.27
2023-10-29T01:34:06.506Z,11.27
2023-10-29T01:34:38.204Z,11.27
2023-10-29T01:35:10.921Z,11.27
2023-10-29T01:35:27.192Z,11.27
2023-10-29T01:35:58.370Z,11.27
2023-10-29T01:36:29.812Z,11.27
2023-10-29T01:37:02.047Z,11.27
2023-10-29T01:37:34.061Z,11.27
2023-10-29T01:38:06.708Z,11.27
2023-10-29T01:38:37.782Z,11.27
2023-10-29T01:39:09.674Z,11.27
2023-10-29T01:39:26.458Z,11.27
2023-10-29T01:39:58.184Z,11.27
2023-10-29T01:40:30.547Z,11.27
2023-10-29T01:41:02.380Z,11.38
2023-10-29T01:41:34.741Z,11.27
2023-10-29T01:42:06.814Z,11.27
2023-10-29T01:42:37.717Z,11.27
2023-10-29T01:43:10.164Z,11.27
2023-10-29T01:43:26.323Z,11.27
2023-10-29T01:43:58.044Z,11.27
2023-10-29T01:44:29.578Z,11.27
2023-10-29T01:45:05.034Z,11.27
2023-10-29T01:45:34.092Z,11.27
2023-10-29T01:46:06.428Z,11.27
2023-10-29T01:46:38.323Z,11.27
2023-10-29T01:47:09.894Z,11.27
2023-10-29T01:47:27.119Z,11.27
2023-10-29T01:47:57.740Z,11.27
2023-10-29T01:48:32.121Z,11.27
2023-10-29T01:49:03.029Z,11.27
2023-10-29T01:49:33.950Z,11.27
2023-10-29T01:50:08.010Z,11.27
2023-10-29T01:50:37.764Z,11.27
2023-10-29T01:51:09.981Z,11.27
2023-10-29T01:51:26.502Z,11.27
2023-10-29T01:51:57.992Z,11.27
2023-10-29T01:52:29.533Z,11.27
2023-10-29T01:53:02.062Z,11.27
2023-10-29T01:53:33.962Z,11.27
2023-10-29T01:54:06.440Z,11.27
2023-10-29T01:54:37.972Z,11.27
2023-10-29T01:55:10.978Z,11.27
2023-10-29T01:55:26.888Z,11.27
2023-10-29T01:55:58.188Z,11.27
2023-10-29T01:56:30.012Z,11.27
2023-10-29T01:57:02.033Z,11.27
2023-10-29T01:57:33.844Z,11.27
2023-10-29T01:58:06.474Z,11.27
2023-10-29T01:58:39.107Z,11.27
2023-10-29T01:59:10.824Z,11.27
2023-10-29T01:59:26.601Z,11.27
2023-10-29T01:59:57.691Z,11.27
2023-10-29T02:00:31.091Z,11.27
2023-10-29T02:01:03.337Z,11.27
2023-10-29T02:01:33.940Z,11.27
2023-10-29T02:02:06.405Z,11.27
2023-10-29T02:02:37.775Z,11.27
2023-10-29T02:03:09.860Z,11.27
2023-10-29T02:03:26.576Z,11.27
2023-10-29T02:03:57.740Z,11.22
2023-10-29T02:04:29.885Z,11.22
2023-10-29T02:05:04.345Z,11.22
2023-10-29T02:05:33.769Z,11.22
2023-10-29T02:06:06.745Z,11.22
2023-10-29T02:06:37.638Z,11.22
2023-10-29T02:07:09.828Z,11.27
2023-10-29T02:07:26.614Z,11.27
2023-10-29T02:07:58.362Z,11.27
2023-10-29T02:08:32.388Z,11.27
2023-10-29T02:09:04.502Z,11.27
2023-10-29T02:09:33.904Z,11.27
2023-10-29T02:10:08.631Z,11.27
2023-10-29T02:10:37.721Z,11.27
2023-10-29T02:11:11.208Z,11.27
2023-10-29T02:11:27.922Z,11.27
2023-10-29T02:11:57.881Z,11.27
2023-10-29T02:12:29.718Z,11.27
2023-10-29T02:13:02.032Z,11.27
2023-10-29T02:13:34.109Z,11.27
2023-10-29T02:14:06.895Z,11.22
2023-10-29T02:14:37.904Z,11.22
2023-10-29T02:15:11.428Z,11.22
2023-10-29T02:15:26.522Z,11.22
2023-10-29T02:15:58.419Z,11.22
2023-10-29T02:16:29.816Z,11.22
2023-10-29T02:17:02.041Z,11.22
2023-10-29T02:17:33.814Z,11.22
2023-10-29T02:18:06.529Z,11.22
2023-10-29T02:18:38.921Z,11.11
2023-10-29T02:19:11.654Z,11.11
2023-10-29T02:19:27.641Z,11.11
2023-10-29T02:19:57.754Z,11.11
2023-10-29T02:20:30.711Z,11.11
2023-10-29T02:21:02.091Z,11.11
2023-10-29T02:21:33.812Z,11.11
2023-10-29T02:22:06.460Z,11.11
2023-10-29T02:22:37.567Z,11.11
2023-10-29T02:23:09.792Z,11.11
2023-10-29T02:23:26.707Z,11.11
2023-10-29T02:23:58.196Z,11.11
2023-10-29T02:24:29.838Z,11.11
2023-10-29T02:25:04.266Z,11.11
2023-10-29T02:25:34.395Z,11.11
2023-10-29T02:26:06.579Z,11.11
2023-10-29T02:26:38.370Z,11.11
2023-10-29T02:27:09.951Z,11.11
2023-10-29T02:27:27.080Z,11.11
2023-10-29T02:27:57.841Z,11.11
2023-10-29T02:28:30.549Z,11.11
2023-10-29T02:29:02.247Z,11.11
2023-10-29T02:29:33.933Z,11.22
2023-10-29T02:30:09.083Z,11.22
2023-10-29T02:30:38.036Z,11.22
2023-10-29T02:31:09.833Z,11.22
2023-10-29T02:31:26.574Z,11.22
2023-10-29T02:31:57.926Z,11.22
2023-10-29T02:32:29.984Z,11.22
2023-10-29T02:33:02.251Z,11.22
2023-10-29T02:33:33.967Z,11.22
2023-10-29T02:34:06.510Z,11.22
2023-10-29T02:34:38.352Z,11.22
2023-10-29T02:35:11.132Z,11.22
2023-10-29T02:35:26.484Z,11.22
2023-10-29T02:35:58.834Z,11.22
2023-10-29T02:36:29.674Z,11.22
2023-10-29T02:37:02.465Z,11.22
2023-10-29T02:37:33.894Z,11.22
2023-10-29T02:38:06.639Z,11.22
2023-10-29T02:38:37.800Z,11.22
2023-10-29T02:39:10.164Z,11.22
2023-10-29T02:39:26.669Z,11.22
2023-10-29T02:39:58.383Z,11.22
2023-10-29T02:40:30.584Z,11.22
2023-10-29T02:41:02.216Z,11.22
2023-10-29T02:41:33.944Z,11.22
2023-10-29T02:42:06.716Z,11.22
2023-10-29T02:42:38.565Z,11.22
2023-10-29T02:43:10.019Z,11.22
2023-10-29T02:43:27.229Z,11.22
2023-10-29T02:43:57.721Z,11.22
2023-10-29T02:44:30.041Z,11.22
2023-10-29T02:44:47.015Z,11.22
2023-10-29T02:45:19.859Z,11.22
2023-10-29T02:45:39.152Z,11.22
2023-10-29T02:46:06.501Z,11.22
2023-10-29T02:46:38.331Z,11.22
2023-10-29T02:47:09.887Z,11.22
2023-10-29T02:47:26.868Z,11.22
2023-10-29T02:47:57.992Z,11.22
2023-10-29T02:48:31.744Z,11.22
2023-10-29T02:48:48.308Z,11.22
2023-10-29T02:49:21.337Z,11.22
2023-10-29T02:49:41.286Z,11.22
2023-10-29T02:50:09.617Z,11.27
2023-10-29T02:50:37.765Z,11.27
2023-10-29T02:51:09.802Z,11.27
2023-10-29T02:51:26.839Z,11.27
2023-10-29T02:51:58.712Z,11.27
2023-10-29T02:52:29.854Z,11.27
2023-10-29T02:52:46.713Z,11.27
2023-10-29T02:53:18.005Z,11.27
2023-10-29T02:53:39.288Z,11.27
2023-10-29T02:54:06.912Z,11.27
2023-10-29T02:54:37.564Z,11.27
2023-10-29T02:55:11.277Z,11.27
2023-10-29T02:55:26.487Z,11.27
2023-10-29T02:55:58.419Z,11.27
2023-10-29T02:56:29.916Z,11.27
2023-10-29T02:56:46.751Z,11.27
2023-10-29T02:57:18.293Z,11.27
2023-10-29T02:57:39.403Z,11.27
2023-10-29T02:58:06.811Z,11.27
2023-10-29T02:58:40.531Z,11.27
2023-10-29T02:59:11.283Z,11.27
2023-10-29T02:59:28.180Z,11.27
2023-10-29T02:59:57.636Z,11.27
2023-10-29T03:00:30.922Z,11.27
2023-10-29T03:00:46.738Z,11.27
2023-10-29T03:01:18.213Z,11.27
2023-10-29T03:01:39.893Z,11.27
2023-10-29T03:02:06.548Z,11.27
2023-10-29T03:02:37.671Z,11.27
2023-10-29T03:03:09.898Z,11.27
2023-10-29T03:03:42.677Z,11.27
2023-10-29T03:03:58.619Z,11.27
2023-10-29T03:04:29.708Z,11.27
2023-10-29T03:04:47.193Z,11.27
2023-10-29T03:05:21.719Z,11.27
2023-10-29T03:05:53.899Z,11.27
2023-10-29T03:06:07.082Z,11.27
2023-10-29T03:06:37.559Z,11.27
2023-10-29T03:07:09.948Z,11.38
2023-10-29T03:07:27.133Z,11.38
2023-10-29T03:07:58.086Z,11.38
2023-10-29T03:08:30.407Z,11.38
2023-10-29T03:08:46.772Z,11.38
2023-10-29T03:09:18.029Z,11.38
2023-10-29T03:09:39.170Z,11.38
2023-10-29T03:10:08.615Z,11.38
2023-10-29T03:10:37.684Z,11.38
2023-10-29T03:11:10.183Z,11.27
2023-10-29T03:11:26.816Z,11.27
2023-10-29T03:11:57.920Z,11.27
2023-10-29T03:12:29.616Z,11.27
2023-10-29T03:12:48.195Z,11.27
2023-10-29T03:13:17.961Z,11.27
2023-10-29T03:13:39.577Z,11.27
2023-10-29T03:14:06.694Z,11.27
2023-10-29T03:14:37.898Z,11.27
2023-10-29T03:15:11.553Z,11.27
2023-10-29T03:15:26.669Z,11.27
2023-10-29T03:15:58.338Z,11.27
2023-10-29T03:16:29.753Z,11.27
2023-10-29T03:16:46.693Z,11.27
2023-10-29T03:17:17.837Z,11.27
2023-10-29T03:17:39.895Z,11.27
2023-10-29T03:18:06.660Z,11.27
2023-10-29T03:18:37.727Z,11.27
2023-10-29T03:19:09.880Z,11.27
2023-10-29T03:19:26.604Z,11.27
2023-10-29T03:19:57.598Z,11.27
2023-10-29T03:20:30.273Z,11.27
2023-10-29T03:20:47.363Z,11.27
2023-10-29T03:21:17.750Z,11.27
2023-10-29T03:21:38.973Z,11.27
2023-10-29T03:22:06.741Z,11.27
2023-10-29T03:22:37.586Z,11.27
2023-10-29T03:23:09.756Z,11.27
2023-10-29T03:23:26.526Z,11.38
2023-10-29T03:23:58.279Z,11.38
2023-10-29T03:24:29.727Z,11.38
2023-10-29T03:24:47.546Z,11.38
2023-10-29T03:25:19.949Z,11.38
2023-10-29T03:25:39.035Z,11.38
2023-10-29T03:26:06.395Z,11.38
2023-10-29T03:26:37.781Z,11.38
2023-10-29T03:27:09.669Z,11.38
2023-10-29T03:27:26.558Z,11.38
2023-10-29T03:27:57.648Z,11.38
2023-10-29T03:28:29.551Z,11.38
2023-10-29T03:28:47.142Z,11.38
2023-10-29T03:29:19.062Z,11.38
2023-10-29T03:29:39.053Z,11.38
2023-10-29T03:30:08.914Z,11.38
2023-10-29T03:30:37.924Z,11.38
2023-10-29T03:31:09.807Z,11.38
2023-10-29T03:31:27.057Z,11.38
2023-10-29T03:31:58.202Z,11.50
2023-10-29T03:32:30.257Z,11.50
2023-10-29T03:32:46.803Z,11.50
2023-10-29T03:33:18.410Z,11.50
2023-10-29T03:33:39.163Z,11.50
2023-10-29T03:34:06.535Z,11.50
2023-10-29T03:34:38.130Z,11.50
2023-10-29T03:35:10.846Z,11.50
2023-10-29T03:35:26.473Z,11.50
2023-10-29T03:35:58.449Z,11.50
2023-10-29T03:36:29.652Z,11.50
2023-10-29T03:36:47.165Z,11.50
2023-10-29T03:37:17.788Z,11.50
2023-10-29T03:37:39.010Z,11.50
2023-10-29T03:38:06.756Z,11.61
2023-10-29T03:38:37.877Z,11.61
2023-10-29T03:39:10.162Z,11.61
2023-10-29T03:39:36.451Z,11.61
2023-10-29T03:39:57.945Z,11.61
2023-10-29T03:40:30.232Z,11.61
2023-10-29T03:40:46.725Z,11.61
2023-10-29T03:41:17.910Z,11.61
2023-10-29T03:41:38.990Z,11.61
2023-10-29T03:42:06.675Z,11.61
2023-10-29T03:42:37.977Z,11.61
2023-10-29T03:43:10.470Z,11.61
2023-10-29T03:43:26.414Z,11.61
2023-10-29T03:43:57.609Z,11.61
2023-10-29T03:44:29.746Z,11.61
2023-10-29T03:44:46.916Z,11.61
2023-10-29T03:45:20.370Z,11.61
2023-10-29T03:45:39.438Z,11.61
2023-10-29T03:46:06.468Z,11.61
2023-10-29T03:46:37.594Z,11.61
2023-10-29T03:47:09.602Z,11.61
2023-10-29T03:47:26.487Z,11.61
2023-10-29T03:47:57.939Z,11.61
2023-10-29T03:48:29.582Z,11.61
2023-10-29T03:48:46.927Z,11.61
2023-10-29T03:49:18.967Z,11.61
2023-10-29T03:49:39.031Z,11.61
2023-10-29T03:50:08.028Z,11.61
2023-10-29T03:50:39.022Z,11.50
2023-10-29T03:51:09.764Z,11.50
2023-10-29T03:51:26.557Z,11.50
2023-10-29T03:51:57.895Z,11.50
2023-10-29T03:52:29.625Z,11.50
2023-10-29T03:52:47.118Z,11.50
2023-10-29T03:53:17.849Z,11.50
2023-10-29T03:53:39.042Z,11.50
2023-10-29T03:54:06.938Z,11.50
2023-10-29T03:54:37.663Z,11.50
2023-10-29T03:55:10.586Z,11.50
2023-10-29T03:55:26.819Z,11.50
2023-10-29T03:55:58.294Z,11.50
2023-10-29T03:56:29.687Z,11.50
2023-10-29T03:56:46.689Z,11.50
2023-10-29T03:57:17.855Z,11.50
2023-10-29T03:57:39.162Z,11.50
2023-10-29T03:58:06.786Z,11.50
2023-10-29T03:58:37.626Z,11.50
2023-10-29T03:59:09.757Z,11.50
2023-10-29T03:59:26.643Z,11.50
2023-10-29T03:59:58.026Z,11.50
2023-10-29T04:00:31.939Z,11.50
2023-10-29T04:00:46.785Z,11.50
2023-10-29T04:01:18.214Z,11.50
2023-10-29T04:01:39.229Z,11.50
2023-10-29T04:02:07.079Z,11.50
2023-10-29T04:02:37.756Z,11.61
2023-10-29T04:03:09.928Z,11.61
2023-10-29T04:03:26.619Z,11.61
2023-10-29T04:03:57.965Z,11.61
2023-10-29T04:04:29.714Z,11.61
2023-10-29T04:04:57.764Z,11.61
2023-10-29T04:05:18.870Z,11.61
2023-10-29T04:05:39.277Z,11.61
2023-10-29T04:06:06.711Z,11.61
2023-10-29T04:06:38.166Z,11.61
2023-10-29T04:07:10.317Z,11.61
2023-10-29T04:07:26.758Z,11.61
2023-10-29T04:07:57.951Z,11.61
2023-10-29T04:08:29.961Z,11.61
2023-10-29T04:08:46.853Z,11.61
2023-10-29T04:09:19.293Z,11.61
2023-10-29T04:09:41.656Z,11.61
2023-10-29T04:10:08.323Z,11.61
2023-10-29T04:10:37.651Z,11.61
2023-10-29T04:11:09.664Z,11.61
2023-10-29T04:11:26.597Z,11.61
2023-10-29T04:11:57.929Z,11.61
2023-10-29T04:12:29.729Z,11.61
2023-10-29T04:12:47.579Z,11.61
2023-10-29T04:13:17.873Z,11.61
2023-10-29T04:13:39.055Z,11.61
2023-10-29T04:14:06.491Z,11.61
2023-10-29T04:14:37.835Z,11.61
2023-10-29T04:15:11.873Z,11.61
2023-10-29T04:15:26.646Z,11.61
2023-10-29T04:15:58.554Z,11.61
2023-10-29T04:16:29.754Z,11.61
2023-10-29T04:16:46.832Z,11.61
2023-10-29T04:17:17.698Z,11.61
2023-10-29T04:17:38.950Z,11.61
2023-10-29T04:18:06.673Z,11.61
2023-10-29T04:18:37.766Z,11.61
2023-10-29T04:19:13.126Z,11.61
2023-10-29T04:19:27.680Z,11.61
2023-10-29T04:19:58.871Z,11.61
2023-10-29T04:20:30.320Z,11.61
2023-10-29T04:20:46.979Z,11.61
2023-10-29T04:21:18.031Z,11.61
2023-10-29T04:21:39.789Z,11.61
2023-10-29T04:22:06.492Z,11.61
2023-10-29T04:22:37.675Z,11.61
2023-10-29T04:23:09.736Z,11.61
2023-10-29T04:23:26.535Z,11.61
2023-10-29T04:23:57.898Z,11.61
2023-10-29T04:24:29.819Z,11.61
2023-10-29T04:24:47.074Z,11.61
2023-10-29T04:25:18.693Z,11.61
2023-10-29T04:25:38.976Z,11.61
2023-10-29T04:26:06.565Z,11.61
2023-10-29T04:26:37.598Z,11.61
2023-10-29T04:27:09.687Z,11.61
2023-10-29T04:27:26.750Z,11.61
2023-10-29T04:27:58.093Z,11.61
2023-10-29T04:28:29.718Z,11.61
2023-10-29T04:28:46.722Z,11.61
2023-10-29T04:29:17.681Z,11.72
2023-10-29T04:29:39.043Z,11.72
2023-10-29T04:30:10.208Z,11.72
2023-10-29T04:30:37.759Z,11.72
2023-10-29T04:31:15.728Z,11.72
2023-10-29T04:31:36.753Z,11.72
2023-10-29T04:31:57.730Z,11.72
2023-10-29T04:32:29.913Z,11.72
2023-10-29T04:33:02.342Z,11.72
2023-10-29T04:33:34.147Z,11.72
2023-10-29T04:34:06.906Z,11.72
2023-10-29T04:34:37.856Z,11.72
2023-10-29T04:35:10.569Z,11.72
2023-10-29T04:35:26.661Z,11.61
2023-10-29T04:35:58.156Z,11.61
2023-10-29T04:36:29.761Z,11.61
2023-10-29T04:36:46.658Z,11.72
2023-10-29T04:37:18.157Z,11.72
2023-10-29T04:37:39.068Z,11.72
2023-10-29T04:38:06.439Z,11.72
2023-10-29T04:38:37.690Z,11.72
2023-10-29T04:39:09.847Z,11.72
2023-10-29T04:39:26.473Z,11.72
2023-10-29T04:39:57.716Z,11.72
2023-10-29T04:40:30.235Z,11.72
2023-10-29T04:40:47.399Z,11.72
2023-10-29T04:41:17.719Z,11.72
2023-10-29T04:41:39.007Z,11.72
2023-10-29T04:42:06.492Z,11.72
2023-10-29T04:42:38.870Z,11.61
2023-10-29T04:43:09.864Z,11.61
2023-10-29T04:43:26.749Z,11.61
2023-10-29T04:43:58.193Z,11.61
2023-10-29T04:44:29.844Z,11.61
2023-10-29T04:44:46.922Z,11.61
2023-10-29T04:45:19.622Z,11.61
2023-10-29T04:45:39.514Z,11.61
2023-10-29T04:46:07.080Z,11.61
2023-10-29T04:46:37.803Z,11.61
2023-10-29T04:47:10.234Z,11.61
2023-10-29T04:47:26.601Z,11.61
2023-10-29T04:47:57.671Z,11.61
2023-10-29T04:48:30.442Z,11.61
2023-10-29T04:48:46.783Z,11.61
2023-10-29T04:49:18.488Z,11.61
2023-10-29T04:49:39.025Z,11.61
2023-10-29T04:50:08.138Z,11.72
2023-10-29T04:50:37.706Z,11.72
2023-10-29T04:51:09.838Z,11.72
2023-10-29T04:51:27.013Z,11.72
2023-10-29T04:51:58.454Z,11.72
2023-10-29T04:52:30.275Z,11.72
2023-10-29T04:52:47.999Z,11.72
2023-10-29T04:53:17.963Z,11.72
2023-10-29T04:53:39.000Z,11.72
2023-10-29T04:54:06.574Z,11.72
2023-10-29T04:54:38.581Z,11.72
2023-10-29T04:55:10.682Z,11.72
2023-10-29T04:55:26.507Z,11.72
2023-10-29T04:55:58.213Z,11.72
2023-10-29T04:56:29.638Z,11.72
2023-10-29T04:56:47.208Z,11.72
2023-10-29T04:57:17.793Z,11.72
2023-10-29T04:57:39.352Z,11.77
2023-10-29T04:58:06.518Z,11.77
2023-10-29T04:58:37.764Z,11.77
2023-10-29T04:59:09.552Z,11.77
2023-10-29T04:59:26.445Z,11.77
2023-10-29T04:59:58.163Z,11.77
2023-10-29T05:00:31.295Z,11.77
2023-10-29T05:00:46.663Z,11.77
2023-10-29T05:01:18.324Z,11.77
2023-10-29T05:01:39.963Z,11.77
2023-10-29T05:02:06.655Z,11.77
2023-10-29T05:02:38.021Z,11.77
2023-10-29T05:03:09.982Z,11.88
2023-10-29T05:03:26.710Z,11.88
2023-10-29T05:03:57.877Z,11.88
2023-10-29T05:04:29.834Z,11.88
2023-10-29T05:04:46.848Z,11.88
2023-10-29T05:05:19.726Z,11.88
2023-10-29T05:05:39.038Z,11.88
2023-10-29T05:06:06.803Z,11.88
2023-10-29T05:06:37.592Z,11.88
2023-10-29T05:07:09.676Z,12.00
2023-10-29T05:07:26.498Z,12.00
2023-10-29T05:07:57.727Z,12.00
2023-10-29T05:08:29.625Z,12.00
2023-10-29T05:08:46.978Z,12.00
2023-10-29T05:09:17.819Z,12.00
2023-10-29T05:09:39.605Z,12.00
2023-10-29T05:10:08.060Z,12.00
2023-10-29T05:10:37.633Z,12.00
2023-10-29T05:11:09.755Z,12.00
2023-10-29T05:11:26.475Z,12.00
2023-10-29T05:11:58.484Z,12.00
2023-10-29T05:12:29.575Z,12.00
2023-10-29T05:12:47.190Z,12.00
2023-10-29T05:13:17.859Z,12.00
2023-10-29T05:13:39.570Z,12.00
2023-10-29T05:14:06.554Z,12.00
2023-10-29T05:14:37.636Z,12.00
2023-10-29T05:15:11.400Z,12.00
2023-10-29T05:15:26.553Z,12.00
2023-10-29T05:15:58.583Z,12.11
2023-10-29T05:16:29.768Z,12.11
2023-10-29T05:16:47.303Z,12.11
2023-10-29T05:17:17.768Z,12.11
2023-10-29T05:17:39.111Z,12.11
2023-10-29T05:18:06.677Z,12.11
2023-10-29T05:18:37.676Z,12.22
2023-10-29T05:19:10.105Z,12.22
2023-10-29T05:19:26.498Z,12.22
2023-10-29T05:19:58.227Z,12.22
2023-10-29T05:20:30.153Z,12.22
2023-10-29T05:20:46.853Z,12.22
2023-10-29T05:21:18.045Z,12.22
2023-10-29T05:21:39.052Z,12.22
2023-10-29T05:22:06.707Z,12.22
2023-10-29T05:22:37.792Z,12.22
2023-10-29T05:23:10.837Z,12.22
2023-10-29T05:23:36.770Z,12.22
2023-10-29T05:23:57.804Z,12.22
2023-10-29T05:24:29.715Z,12.22
2023-10-29T05:24:46.857Z,12.22
2023-10-29T05:25:20.937Z,12.22
2023-10-29T05:25:39.033Z,12.22
2023-10-29T05:26:06.895Z,12.22
2023-10-29T05:26:37.554Z,12.22
2023-10-29T05:27:09.580Z,12.22
2023-10-29T05:27:27.231Z,12.22
2023-10-29T05:27:57.662Z,12.27
2023-10-29T05:28:30.199Z,12.27
2023-10-29T05:28:46.918Z,12.27
2023-10-29T05:29:18.328Z,12.27
2023-10-29T05:29:39.066Z,12.27
2023-10-29T05:30:08.742Z,12.27
2023-10-29T05:30:38.365Z,12.27
2023-10-29T05:31:09.738Z,12.27
2023-10-29T05:31:26.733Z,12.27
2023-10-29T05:31:57.596Z,12.27
2023-10-29T05:32:29.748Z,12.27
2023-10-29T05:32:47.171Z,12.27
2023-10-29T05:33:17.897Z,12.27
2023-10-29T05:33:39.153Z,12.27
2023-10-29T05:34:06.821Z,12.27
2023-10-29T05:34:37.773Z,12.27
2023-10-29T05:35:10.395Z,12.27
2023-10-29T05:35:26.639Z,12.27
2023-10-29T05:35:58.215Z,12.27
2023-10-29T05:36:29.875Z,12.27
2023-10-29T05:36:46.789Z,12.27
2023-10-29T05:37:19.109Z,12.27
2023-10-29T05:37:39.085Z,12.27
2023-10-29T05:38:06.630Z,12.38
2023-10-29T05:38:37.588Z,12.27
2023-10-29T05:39:09.912Z,12.27
2023-10-29T05:39:26.610Z,12.27
2023-10-29T05:39:57.621Z,12.27
2023-10-29T05:40:30.971Z,12.27
2023-10-29T05:40:46.871Z,12.27
2023-10-29T05:41:17.945Z,12.27
2023-10-29T05:41:39.064Z,12.27
2023-10-29T05:42:06.629Z,12.27
2023-10-29T05:42:37.870Z,12.27
2023-10-29T05:43:10.682Z,12.27
2023-10-29T05:43:27.485Z,12.27
2023-10-29T05:43:58.107Z,12.27
2023-10-29T05:44:29.788Z,12.27
2023-10-29T05:44:46.942Z,12.27
2023-10-29T05:45:19.589Z,12.27
2023-10-29T05:45:39.140Z,12.27
2023-10-29T05:46:06.930Z,12.27
2023-10-29T05:46:38.516Z,12.27
2023-10-29T05:47:09.565Z,12.27
2023-10-29T05:47:26.586Z,12.27
2023-10-29T05:47:57.696Z,12.27
2023-10-29T05:48:29.840Z,12.27
2023-10-29T05:48:47.231Z,12.27
2023-10-29T05:49:17.823Z,12.27
2023-10-29T05:49:39.152Z,12.27
2023-10-29T05:50:08.348Z,12.27
2023-10-29T05:50:37.876Z,12.27
2023-10-29T05:51:09.685Z,12.22
2023-10-29T05:51:26.547Z,12.22
2023-10-29T05:51:57.655Z,12.22
2023-10-29T05:52:29.722Z,12.22
2023-10-29T05:52:47.160Z,12.22
2023-10-29T05:53:17.824Z,12.22
2023-10-29T05:53:39.122Z,12.22
2023-10-29T05:54:06.725Z,12.22
2023-10-29T05:54:37.665Z,12.22
2023-10-29T05:55:10.554Z,12.22
2023-10-29T05:55:26.739Z,12.22
2023-10-29T05:55:58.557Z,12.22
2023-10-29T05:56:29.677Z,12.22
2023-10-29T05:56:46.735Z,12.22
2023-10-29T05:57:17.795Z,12.22
2023-10-29T05:57:38.900Z,12.22
2023-10-29T05:58:06.809Z,12.22
2023-10-29T05:58:37.847Z,12.22
2023-10-29T05:59:09.588Z,12.22
2023-10-29T05:59:28.518Z,12.22
2023-10-29T05:59:58.823Z,12.22
2023-10-29T06:00:32.178Z,12.22
2023-10-29T06:00:47.210Z,12.22
2023-10-29T06:01:17.908Z,12.22
2023-10-29T06:01:39.002Z,12.22